Time;durP1;ratioP1;P1;durP2;ratioP2;P2;SDS_P1;SDS_P2;PMS_P1;PMS_P2;Temp;Humidity;BMP_temperature;BMP_pressure;BME280_temperature;BME280_humidity;BME280_pressure;Samples;Min_cycle;Max_cycle;Signal;HPM_P1;HPM_P2
2021/12/13 00:00:30;;;;;;;;;0.00;0.00;;;;;;;;5052952;28;8780;-79
2021/12/13 00:03:01;;;;;;;;;0.00;0.00;;;;;;;;5048053;27;8788;-79
2021/12/13 00:05:37;;;;;;;;;0.00;0.00;;;;;;;;5052609;27;8816;-79
2021/12/13 00:08:05;;;;;;;;;0.00;0.00;;;;;;;;5041596;28;8824;-79
2021/12/13 00:10:37;;;;;;;;;0.00;0.00;;;;;;;;5052536;27;8878;-80
2021/12/13 00:13:11;;;;;;;;;0.00;0.00;;;;;;;;5061226;27;8777;-80
2021/12/13 00:15:42;;;;;;;;;0.00;0.00;;;;;;;;5056840;28;8784;-80
2021/12/13 00:18:07;;;;;;;;;0.00;0.00;;;;;;;;5052888;28;8792;-79
2021/12/13 00:20:39;;;;;;;;;0.00;0.00;;;;;;;;5052831;28;8812;-79
2021/12/13 00:23:16;;;;;;;;;0.00;0.00;;;;;;;;5052868;28;8777;-79
2021/12/13 00:25:46;;;;;;;;;0.00;0.00;;;;;;;;5052077;27;8901;-79
2021/12/13 00:28:14;;;;;;;;;0.00;0.00;;;;;;;;5051727;28;8826;-79
2021/12/13 00:30:57;;;;;;;;;0.00;0.00;;;;;;;;5052472;27;8776;-80
2021/12/13 00:33:41;;;;;;;;;0.00;0.00;;;;;;;;5051122;27;8788;-79
2021/12/13 00:36:25;;;;;;;;;0.00;0.00;;;;;;;;5052631;27;8815;-79
2021/12/13 00:38:53;;;;;;;;;0.00;0.00;;;;;;;;5040150;28;8800;-79
2021/12/13 00:41:21;;;;;;;;;0.00;0.00;;;;;;;;5050935;27;8899;-79
2021/12/13 00:43:51;;;;;;;;;0.00;0.00;;;;;;;;5087081;27;8774;-79
2021/12/13 00:46:17;;;;;;;;;0.00;0.00;;;;;;;;5045202;27;8822;-79
2021/12/13 00:48:44;;;;;;;;;0.00;0.00;;;;;;;;5044448;28;8796;-79
2021/12/13 00:51:22;;;;;;;;;0.00;0.00;;;;;;;;5052742;27;8822;-79
2021/12/13 00:53:48;;;;;;;;;0.00;0.00;;;;;;;;5052034;28;8792;-79
2021/12/13 00:56:32;;;;;;;;;0.00;0.00;;;;;;;;5074696;27;8776;-79
2021/12/13 00:58:58;;;;;;;;;0.00;0.00;;;;;;;;5038962;28;8819;-79
2021/12/13 01:01:23;;;;;;;;;0.00;0.00;;;;;;;;5051991;27;8824;-79
2021/12/13 01:03:50;;;;;;;;;0.00;0.00;;;;;;;;5052004;27;8808;-79
2021/12/13 01:06:36;;;;;;;;;0.00;0.00;;;;;;;;5075441;27;8832;-79
2021/12/13 01:09:20;;;;;;;;;0.00;0.00;;;;;;;;5051783;28;8885;-79
2021/12/13 01:11:51;;;;;;;;;0.00;0.00;;;;;;;;5051936;27;8800;-79
2021/12/13 01:14:20;;;;;;;;;0.00;0.00;;;;;;;;5052192;28;8780;-79
2021/12/13 01:17:02;;;;;;;;;0.00;0.00;;;;;;;;5051648;27;8819;-80
2021/12/13 01:19:48;;;;;;;;;0.00;0.00;;;;;;;;5051962;28;8800;-79
2021/12/13 01:22:32;;;;;;;;;0.00;0.00;;;;;;;;5052070;27;8800;-79
2021/12/13 01:27:30;;;;;;;;;0.00;0.00;;;;;;;;5047396;27;8836;-79
2021/12/13 01:29:56;;;;;;;;;0.00;0.00;;;;;;;;5051584;28;8748;-79
2021/12/13 01:32:23;;;;;;;;;0.00;0.00;;;;;;;;5052165;27;8839;-79
2021/12/13 01:34:48;;;;;;;;;0.00;0.00;;;;;;;;5051488;28;8820;-79
2021/12/13 01:37:15;;;;;;;;;0.00;0.00;;;;;;;;5051926;27;8840;-80
2021/12/13 01:39:46;;;;;;;;;0.00;0.00;;;;;;;;5051068;28;8737;-79
2021/12/13 01:42:14;;;;;;;;;0.00;0.00;;;;;;;;5052080;27;8804;-80
2021/12/13 01:44:42;;;;;;;;;0.00;0.00;;;;;;;;5088404;27;8776;-79
2021/12/13 01:47:13;;;;;;;;;0.00;0.00;;;;;;;;5050198;28;8896;-79
2021/12/13 01:49:40;;;;;;;;;0.00;0.00;;;;;;;;5051348;27;8796;-79
2021/12/13 01:52:24;;;;;;;;;0.00;0.00;;;;;;;;5051970;28;8864;-79
2021/12/13 01:54:50;;;;;;;;;0.00;0.00;;;;;;;;5064192;27;8747;-79
2021/12/13 01:57:37;;;;;;;;;0.00;0.00;;;;;;;;5084945;27;8830;-79
2021/12/13 02:00:09;;;;;;;;;0.00;0.00;;;;;;;;5045762;28;8829;-80
2021/12/13 02:02:42;;;;;;;;;0.00;0.00;;;;;;;;5051246;28;9653;-80
2021/12/13 02:05:07;;;;;;;;;0.00;0.00;;;;;;;;5051444;27;8842;-79
2021/12/13 02:07:37;;;;;;;;;0.00;0.00;;;;;;;;5060007;27;8910;-79
2021/12/13 02:10:04;;;;;;;;;0.00;0.00;;;;;;;;5051107;28;8736;-80
2021/12/13 02:12:33;;;;;;;;;0.00;0.00;;;;;;;;5049984;27;8958;-80
2021/12/13 02:17:44;;;;;;;;;0.00;0.00;;;;;;;;5050992;28;8792;-79
2021/12/13 02:20:42;;;;;;;;;0.00;0.00;;;;;;;;5051439;27;8776;-79
2021/12/13 02:23:08;;;;;;;;;0.00;0.00;;;;;;;;5075197;27;8796;-79
2021/12/13 02:25:33;;;;;;;;;0.00;0.00;;;;;;;;5049571;28;8796;-80
2021/12/13 02:28:04;;;;;;;;;0.00;0.00;;;;;;;;5049282;28;8955;-79
2021/12/13 02:30:46;;;;;;;;;0.00;0.00;;;;;;;;5051341;28;8760;-79
2021/12/13 02:33:23;;;;;;;;;0.00;0.00;;;;;;;;5051226;27;8803;-79
2021/12/13 02:36:18;;;;;;;;;0.00;0.00;;;;;;;;5050549;27;8802;-79
2021/12/13 02:38:46;;;;;;;;;0.00;0.00;;;;;;;;5076752;27;8838;-79
2021/12/13 02:41:12;;;;;;;;;0.00;0.00;;;;;;;;5051269;27;8785;-79
2021/12/13 02:43:40;;;;;;;;;0.00;0.00;;;;;;;;5081126;27;8794;-79
2021/12/13 02:46:05;;;;;;;;;0.00;0.00;;;;;;;;5047371;27;9813;-79
2021/12/13 02:48:31;;;;;;;;;0.00;0.00;;;;;;;;5047548;28;8831;-79
2021/12/13 02:50:59;;;;;;;;;0.00;0.00;;;;;;;;5051133;28;9548;-79
2021/12/13 02:53:29;;;;;;;;;0.00;0.00;;;;;;;;5052551;27;8793;-79
2021/12/13 02:55:54;;;;;;;;;0.00;0.00;;;;;;;;5070388;27;8759;-79
2021/12/13 02:58:22;;;;;;;;;0.00;0.00;;;;;;;;5053858;27;8820;-79
2021/12/13 03:00:54;;;;;;;;;0.00;0.00;;;;;;;;5053280;28;8891;-79
2021/12/13 03:03:23;;;;;;;;;0.00;0.00;;;;;;;;5053750;27;8784;-79
2021/12/13 03:05:50;;;;;;;;;0.00;0.00;;;;;;;;5067018;27;8780;-79
2021/12/13 03:08:19;;;;;;;;;0.00;0.00;;;;;;;;5057020;27;8804;-80
2021/12/13 03:10:48;;;;;;;;;0.00;0.00;;;;;;;;5052939;27;8838;-80
2021/12/13 03:13:14;;;;;;;;;0.00;0.00;;;;;;;;5040560;27;8788;-79
2021/12/13 03:15:43;;;;;;;;;0.00;0.00;;;;;;;;5053357;28;8884;-79
2021/12/13 03:18:15;;;;;;;;;0.00;0.00;;;;;;;;5053760;27;8906;-79
2021/12/13 03:20:59;;;;;;;;;0.00;0.00;;;;;;;;5053007;27;8814;-78
2021/12/13 03:23:39;;;;;;;;;0.00;0.00;;;;;;;;5053727;27;8812;-79
2021/12/13 03:26:07;;;;;;;;;0.00;0.00;;;;;;;;5053220;28;8828;-79
2021/12/13 03:28:39;;;;;;;;;0.00;0.00;;;;;;;;5053460;27;8823;-79
2021/12/13 03:31:08;;;;;;;;;0.00;0.00;;;;;;;;5053555;28;8772;-79
2021/12/13 03:33:37;;;;;;;;;0.00;0.00;;;;;;;;5048812;27;8807;-79
2021/12/13 03:36:07;;;;;;;;;0.00;0.00;;;;;;;;5052943;28;8862;-79
2021/12/13 03:38:34;;;;;;;;;0.00;0.00;;;;;;;;5053672;27;8816;-79
2021/12/13 03:41:01;;;;;;;;;0.00;0.00;;;;;;;;5052691;27;8804;-79
2021/12/13 03:43:31;;;;;;;;;0.00;0.00;;;;;;;;5076283;27;8727;-79
2021/12/13 03:46:02;;;;;;;;;0.00;0.00;;;;;;;;5062817;27;8788;-79
2021/12/13 03:48:28;;;;;;;;;0.00;0.00;;;;;;;;5053451;28;8904;-79
2021/12/13 03:50:55;;;;;;;;;0.00;0.00;;;;;;;;5052713;27;8803;-79
2021/12/13 03:53:23;;;;;;;;;0.00;0.00;;;;;;;;5053354;28;8800;-79
2021/12/13 03:55:50;;;;;;;;;0.00;0.00;;;;;;;;5098600;27;8826;-78
2021/12/13 03:58:18;;;;;;;;;0.00;0.00;;;;;;;;5053236;27;8871;-79
2021/12/13 04:00:47;;;;;;;;;0.00;0.00;;;;;;;;5051213;27;8785;-79
2021/12/13 04:03:14;;;;;;;;;0.00;0.00;;;;;;;;5051955;28;8780;-79
2021/12/13 04:05:40;;;;;;;;;0.00;0.00;;;;;;;;5059827;27;8807;-79
2021/12/13 04:08:07;;;;;;;;;0.00;0.00;;;;;;;;5092842;27;8892;-79
2021/12/13 04:10:34;;;;;;;;;0.00;0.00;;;;;;;;5052471;28;8771;-80
2021/12/13 04:13:02;;;;;;;;;0.00;0.00;;;;;;;;5051271;27;8823;-80
2021/12/13 04:15:32;;;;;;;;;0.00;0.00;;;;;;;;5052912;27;8768;-80
2021/12/13 04:18:14;;;;;;;;;0.00;0.00;;;;;;;;5052620;27;8876;-80
2021/12/13 04:20:41;;;;;;;;;0.00;0.00;;;;;;;;5052554;27;8907;-80
2021/12/13 04:23:25;;;;;;;;;0.00;0.00;;;;;;;;5052887;28;8795;-80
2021/12/13 04:25:52;;;;;;;;;0.00;0.00;;;;;;;;5050941;28;8814;-80
2021/12/13 04:28:19;;;;;;;;;0.00;0.00;;;;;;;;5052626;27;8828;-80
2021/12/13 04:30:54;;;;;;;;;0.00;0.00;;;;;;;;5052634;28;8760;-80
2021/12/13 04:33:33;;;;;;;;;0.00;0.00;;;;;;;;5037703;28;8792;-80
2021/12/13 04:36:05;;;;;;;;;0.00;0.00;;;;;;;;5040153;28;8792;-80
2021/12/13 04:38:53;;;;;;;;;0.00;0.00;;;;;;;;5052511;27;8768;-80
2021/12/13 04:41:23;;;;;;;;;0.00;0.00;;;;;;;;5052657;27;8811;-80
2021/12/13 04:43:49;;;;;;;;;0.00;0.00;;;;;;;;5041466;27;8788;-80
2021/12/13 04:46:17;;;;;;;;;0.00;0.00;;;;;;;;5056803;27;8905;-80
2021/12/13 04:48:45;;;;;;;;;0.00;0.00;;;;;;;;5052332;28;8816;-80
2021/12/13 04:51:13;;;;;;;;;0.00;0.00;;;;;;;;5052401;27;9722;-80
2021/12/13 04:53:49;;;;;;;;;0.00;0.00;;;;;;;;5052035;28;8784;-80
2021/12/13 04:56:22;;;;;;;;;0.00;0.00;;;;;;;;5055144;27;8790;-80
2021/12/13 04:58:48;;;;;;;;;0.00;0.00;;;;;;;;5052286;28;8819;-80
2021/12/13 05:01:14;;;;;;;;;0.00;0.00;;;;;;;;5052138;27;8830;-80
2021/12/13 05:03:41;;;;;;;;;0.00;0.00;;;;;;;;5052254;28;8796;-80
2021/12/13 05:06:07;;;;;;;;;0.00;0.00;;;;;;;;5053221;27;9557;-80
2021/12/13 05:08:33;;;;;;;;;0.00;0.00;;;;;;;;5050674;28;8897;-80
2021/12/13 05:11:01;;;;;;;;;0.00;0.00;;;;;;;;5053539;27;8836;-80
2021/12/13 05:13:28;;;;;;;;;0.00;0.00;;;;;;;;5051790;28;8760;-80
2021/12/13 05:15:54;;;;;;;;;0.00;0.00;;;;;;;;5051895;27;8780;-79
2021/12/13 05:18:21;;;;;;;;;0.00;0.00;;;;;;;;5051844;27;8915;-79
2021/12/13 05:20:56;;;;;;;;;0.00;0.00;;;;;;;;5047318;27;8878;-79
2021/12/13 05:23:22;;;;;;;;;0.00;0.00;;;;;;;;5052331;28;9721;-79
2021/12/13 05:25:55;;;;;;;;;0.00;0.00;;;;;;;;5059848;27;8852;-79
2021/12/13 05:28:26;;;;;;;;;0.00;0.00;;;;;;;;5056093;28;8822;-79
2021/12/13 05:31:09;;;;;;;;;0.00;0.00;;;;;;;;5051803;27;9804;-79
2021/12/13 05:33:38;;;;;;;;;0.00;0.00;;;;;;;;5050212;28;8793;-80
2021/12/13 05:36:24;;;;;;;;;0.00;0.00;;;;;;;;5050409;27;8792;-79
2021/12/13 05:38:59;;;;;;;;;0.00;0.00;;;;;;;;5038974;28;8823;-80
2021/12/13 05:41:27;;;;;;;;;0.00;0.00;;;;;;;;5051966;27;9814;-80
2021/12/13 05:43:55;;;;;;;;;0.00;0.00;;;;;;;;5092816;27;8743;-79
2021/12/13 05:46:23;;;;;;;;;0.00;0.00;;;;;;;;5063706;27;8918;-80
2021/12/13 05:48:57;;;;;;;;;0.00;0.00;;;;;;;;5051333;27;8797;-79
2021/12/13 05:51:26;;;;;;;;;0.00;0.00;;;;;;;;5051553;27;8827;-80
2021/12/13 05:53:58;;;;;;;;;0.00;0.00;;;;;;;;5049634;28;8800;-79
2021/12/13 05:56:26;;;;;;;;;0.00;0.00;;;;;;;;5104141;27;8926;-79
2021/12/13 05:58:52;;;;;;;;;0.00;0.00;;;;;;;;5051190;28;8788;-79
2021/12/13 06:01:31;;;;;;;;;0.00;0.00;;;;;;;;5051713;27;8814;-79
2021/12/13 06:03:57;;;;;;;;;0.00;0.00;;;;;;;;5053559;28;8828;-79
2021/12/13 06:06:25;;;;;;;;;0.00;0.00;;;;;;;;5098819;27;9050;-79
2021/12/13 06:08:53;;;;;;;;;0.00;0.00;;;;;;;;5062974;27;9693;-78
2021/12/13 06:11:32;;;;;;;;;0.00;0.00;;;;;;;;5051459;27;8789;-80
2021/12/13 06:14:03;;;;;;;;;0.00;0.00;;;;;;;;5051078;27;8792;-81
2021/12/13 06:16:34;;;;;;;;;0.00;0.00;;;;;;;;5051544;28;8811;-80
2021/12/13 06:19:08;;;;;;;;;0.00;0.00;;;;;;;;5045478;27;8975;-80
2021/12/13 06:21:40;;;;;;;;;0.00;0.00;;;;;;;;5044790;28;8799;-79
2021/12/13 06:24:05;;;;;;;;;0.00;0.00;;;;;;;;5049848;27;10044;-80
2021/12/13 06:26:31;;;;;;;;;0.00;0.00;;;;;;;;5051088;28;8827;-80
2021/12/13 06:28:58;;;;;;;;;0.00;0.00;;;;;;;;5063587;27;8904;-80
2021/12/13 06:31:33;;;;;;;;;0.00;0.00;;;;;;;;5032565;28;8812;-80
2021/12/13 06:34:00;;;;;;;;;0.00;0.00;;;;;;;;5050415;28;8818;-80
2021/12/13 06:36:30;;;;;;;;;0.00;0.00;;;;;;;;5049751;28;8792;-80
2021/12/13 06:39:00;;;;;;;;;0.00;0.00;;;;;;;;5050444;27;8768;-80
2021/12/13 06:41:25;;;;;;;;;0.00;0.00;;;;;;;;5050545;27;8950;-80
2021/12/13 06:43:53;;;;;;;;;0.00;0.00;;;;;;;;5089551;27;8928;-79
2021/12/13 06:46:24;;;;;;;;;0.00;0.00;;;;;;;;5065103;27;8825;-80
2021/12/13 06:48:52;;;;;;;;;0.00;0.00;;;;;;;;5050412;27;9631;-79
2021/12/13 06:51:18;;;;;;;;;0.00;0.00;;;;;;;;5080054;27;8838;-79
2021/12/13 06:54:01;;;;;;;;;0.00;0.00;;;;;;;;5048865;27;9754;-79
2021/12/13 06:56:28;;;;;;;;;0.00;0.00;;;;;;;;5079928;27;9702;-79
2021/12/13 06:58:58;;;;;;;;;0.00;0.00;;;;;;;;5050216;27;8803;-80
2021/12/13 07:01:23;;;;;;;;;0.00;0.00;;;;;;;;5055486;28;8782;-78
2021/12/13 07:04:00;;;;;;;;;0.00;0.00;;;;;;;;5053435;27;8808;-79
2021/12/13 07:06:26;;;;;;;;;0.00;0.00;;;;;;;;5056041;27;8804;-79
2021/12/13 07:09:03;;;;;;;;;0.00;0.00;;;;;;;;5049847;28;8951;-79
2021/12/13 07:11:38;;;;;;;;;0.00;0.00;;;;;;;;5038630;27;8752;-79
2021/12/13 07:14:05;;;;;;;;;0.00;0.00;;;;;;;;5045383;28;8795;-79
2021/12/13 07:16:32;;;;;;;;;0.00;0.00;;;;;;;;5045795;27;8784;-79
2021/12/13 07:19:03;;;;;;;;;0.00;0.00;;;;;;;;5047207;28;8760;-78
2021/12/13 07:21:31;;;;;;;;;0.00;0.00;;;;;;;;5050298;28;8810;-79
2021/12/13 07:23:56;;;;;;;;;0.00;0.00;;;;;;;;5049784;27;8833;-79
2021/12/13 07:26:31;;;;;;;;;0.00;0.00;;;;;;;;5050410;28;8816;-78
2021/12/13 07:28:57;;;;;;;;;0.00;0.00;;;;;;;;5057551;27;8800;-78
2021/12/13 07:31:23;;;;;;;;;0.00;0.00;;;;;;;;5049670;28;8814;-78
2021/12/13 07:33:48;;;;;;;;;0.00;0.00;;;;;;;;5049594;27;8796;-79
2021/12/13 07:36:22;;;;;;;;;0.00;0.00;;;;;;;;5049947;28;8970;-79
2021/12/13 07:38:49;;;;;;;;;0.00;0.00;;;;;;;;5052855;27;9752;-80
2021/12/13 07:41:15;;;;;;;;;0.00;0.00;;;;;;;;5053014;28;8806;-80
2021/12/13 07:43:45;;;;;;;;;0.00;0.00;;;;;;;;5085636;27;8785;-80
2021/12/13 07:46:22;;;;;;;;;0.00;0.00;;;;;;;;5064749;27;8868;-80
2021/12/13 07:48:49;;;;;;;;;0.00;0.00;;;;;;;;5052823;27;8859;-80
2021/12/13 07:51:18;;;;;;;;;0.00;0.00;;;;;;;;5052880;28;8796;-80
2021/12/13 07:53:48;;;;;;;;;0.00;0.00;;;;;;;;5052450;27;8808;-80
2021/12/13 07:56:29;;;;;;;;;0.00;0.00;;;;;;;;5098742;27;8797;-79
2021/12/13 07:58:59;;;;;;;;;0.00;0.00;;;;;;;;5065803;28;8962;-80
2021/12/13 08:01:27;;;;;;;;;0.00;0.00;;;;;;;;5053012;27;8788;-80
2021/12/13 08:03:52;;;;;;;;;0.00;0.00;;;;;;;;5051114;28;8757;-80
2021/12/13 08:06:17;;;;;;;;;0.00;0.00;;;;;;;;5087199;27;9577;-79
2021/12/13 08:08:47;;;;;;;;;0.00;0.00;;;;;;;;5064996;27;8832;-79
2021/12/13 08:11:13;;;;;;;;;0.00;0.00;;;;;;;;5053062;28;8961;-79
2021/12/13 08:13:38;;;;;;;;;0.00;0.00;;;;;;;;5052470;27;8836;-79
2021/12/13 08:16:06;;;;;;;;;0.00;0.00;;;;;;;;5050433;27;8785;-78
2021/12/13 08:18:40;;;;;;;;;0.00;0.00;;;;;;;;5055926;27;8800;-79
2021/12/13 08:21:20;;;;;;;;;0.00;0.00;;;;;;;;5041070;28;8822;-79
2021/12/13 08:23:47;;;;;;;;;0.00;0.00;;;;;;;;5052151;27;8865;-79
2021/12/13 08:26:16;;;;;;;;;0.00;0.00;;;;;;;;5053096;28;8717;-79
2021/12/13 08:28:46;;;;;;;;;0.00;0.00;;;;;;;;5050974;27;8815;-80
2021/12/13 08:31:20;;;;;;;;;0.00;0.00;;;;;;;;5052932;28;8788;-79
2021/12/13 08:33:47;;;;;;;;;0.00;0.00;;;;;;;;5038100;28;8808;-80
2021/12/13 08:36:25;;;;;;;;;0.00;0.00;;;;;;;;5055555;28;8805;-80
2021/12/13 08:38:51;;;;;;;;;0.00;0.00;;;;;;;;5050906;27;8908;-79
2021/12/13 08:41:19;;;;;;;;;0.00;0.00;;;;;;;;5052480;27;8780;-79
2021/12/13 08:43:54;;;;;;;;;0.00;0.00;;;;;;;;5088198;27;8762;-79
2021/12/13 08:46:40;;;;;;;;;0.00;0.00;;;;;;;;5065360;27;8816;-79
2021/12/13 08:49:31;;;;;;;;;0.00;0.00;;;;;;;;5050433;27;8846;-79
2021/12/13 08:52:05;;;;;;;;;0.00;0.00;;;;;;;;5054785;27;8765;-79
2021/12/13 08:54:33;;;;;;;;;0.00;0.00;;;;;;;;5064249;27;8788;-79
2021/12/13 08:57:00;;;;;;;;;0.00;0.00;;;;;;;;5091373;27;8900;-79
2021/12/13 08:59:27;;;;;;;;;0.00;0.00;;;;;;;;5052225;28;8842;-80
2021/12/13 09:02:01;;;;;;;;;0.00;0.00;;;;;;;;5052325;28;8816;-79
2021/12/13 09:04:30;;;;;;;;;0.00;0.00;;;;;;;;5039564;28;8788;-80
2021/12/13 09:06:57;;;;;;;;;0.00;0.00;;;;;;;;5109519;27;8747;-81
2021/12/13 09:09:23;;;;;;;;;0.00;0.00;;;;;;;;5052183;27;8865;-81
2021/12/13 09:11:56;;;;;;;;;0.00;0.00;;;;;;;;5050069;28;8784;-79
2021/12/13 09:14:40;;;;;;;;;0.00;0.00;;;;;;;;5045814;27;8859;-79
2021/12/13 09:17:16;;;;;;;;;0.00;0.00;;;;;;;;5055274;27;8825;-77
2021/12/13 09:19:51;;;;;;;;;0.00;0.00;;;;;;;;5059314;27;10175;-79
2021/12/13 09:22:23;;;;;;;;;0.00;0.00;;;;;;;;5062111;27;8814;-79
2021/12/13 09:24:51;;;;;;;;;0.00;0.00;;;;;;;;5051382;27;8856;-78
2021/12/13 09:27:17;;;;;;;;;0.00;0.00;;;;;;;;5054417;27;8831;-84
2021/12/13 09:29:50;;;;;;;;;0.00;0.00;;;;;;;;5051854;28;8819;-78
2021/12/13 09:32:15;;;;;;;;;0.00;0.00;;;;;;;;5051859;28;8868;-77
2021/12/13 09:34:41;;;;;;;;;0.00;0.00;;;;;;;;5051163;28;8919;-77
2021/12/13 09:37:06;;;;;;;;;0.00;0.00;;;;;;;;5054577;27;8923;-76
2021/12/13 09:39:32;;;;;;;;;0.00;0.00;;;;;;;;5046704;28;8850;-76
2021/12/13 09:42:15;;;;;;;;;0.00;0.00;;;;;;;;5069424;27;8881;-76
2021/12/13 09:44:54;;;;;;;;;0.00;0.00;;;;;;;;5062623;27;8788;-77
2021/12/13 09:47:30;;;;;;;;;0.00;0.00;;;;;;;;5049659;28;8824;-76
2021/12/13 09:49:55;;;;;;;;;0.00;0.00;;;;;;;;5055000;28;8799;-77
2021/12/13 09:52:36;;;;;;;;;0.00;0.00;;;;;;;;5054637;28;8826;-77
2021/12/13 09:55:12;;;;;;;;;0.00;0.00;;;;;;;;5048049;27;8796;-76
2021/12/13 09:57:40;;;;;;;;;0.00;0.00;;;;;;;;5053072;28;9711;-76
2021/12/13 10:00:12;;;;;;;;;0.00;0.00;;;;;;;;5051563;27;8781;-76
2021/12/13 10:02:41;;;;;;;;;0.00;0.00;;;;;;;;5053245;28;9795;-76
2021/12/13 10:05:08;;;;;;;;;0.00;0.00;;;;;;;;5060893;28;8780;-76
2021/12/13 10:07:36;;;;;;;;;0.00;0.00;;;;;;;;5080725;27;8814;-76
2021/12/13 10:10:09;;;;;;;;;0.00;0.00;;;;;;;;5054175;28;8768;-76
2021/12/13 10:12:43;;;;;;;;;0.00;0.00;;;;;;;;5060958;27;9751;-76
2021/12/13 10:15:23;;;;;;;;;0.00;0.00;;;;;;;;5051093;27;8758;-76
2021/12/13 10:17:50;;;;;;;;;0.00;0.00;;;;;;;;5047089;27;8812;-77
2021/12/13 10:20:18;;;;;;;;;0.00;0.00;;;;;;;;5067347;28;8770;-77
2021/12/13 10:22:44;;;;;;;;;0.00;0.00;;;;;;;;5064449;27;8754;-77
2021/12/13 10:25:11;;;;;;;;;0.00;0.00;;;;;;;;5067472;28;8800;-77
2021/12/13 10:27:37;;;;;;;;;0.00;0.00;;;;;;;;5051029;27;8753;-76
2021/12/13 10:30:06;;;;;;;;;35.40;31.80;;;;;;;;5050133;27;8800;-75
2021/12/13 10:32:34;;;;;;;;;35.00;31.40;;;;;;;;5049893;27;8829;-77
2021/12/13 10:35:03;;;;;;;;;0.00;0.00;;;;;;;;5049973;28;9039;-78
2021/12/13 10:37:31;;;;;;;;;0.00;0.00;;;;;;;;5059435;28;8792;-77
2021/12/13 10:39:59;;;;;;;;;0.00;0.00;;;;;;;;5057280;27;8788;-77
2021/12/13 10:42:30;;;;;;;;;0.00;0.00;;;;;;;;5050692;27;8923;-78
2021/12/13 10:44:56;;;;;;;;;0.00;0.00;;;;;;;;5061049;27;8779;-77
2021/12/13 10:47:27;;;;;;;;;0.00;0.00;;;;;;;;5050109;27;8935;-77
2021/12/13 10:49:53;;;;;;;;;1.50;1.50;;;;;;;;5046159;28;8773;-78
2021/12/13 10:52:30;;;;;;;;;0.00;0.00;;;;;;;;5050654;27;8807;-78
2021/12/13 10:54:57;;;;;;;;;0.00;0.00;;;;;;;;5058485;27;8776;-77
2021/12/13 10:57:28;;;;;;;;;1.00;1.00;;;;;;;;5047287;27;8781;-78
2021/12/13 10:59:55;;;;;;;;;0.00;0.00;;;;;;;;5050157;27;8717;-78
2021/12/13 11:02:23;;;;;;;;;0.00;0.00;;;;;;;;5050358;27;8729;-78
2021/12/13 11:04:52;;;;;;;;;0.25;0.25;;;;;;;;5048133;27;8740;-78
2021/12/13 11:07:18;;;;;;;;;1.25;1.25;;;;;;;;5079966;27;8911;-78
2021/12/13 11:09:45;;;;;;;;;0.00;0.00;;;;;;;;5057511;27;8906;-78
2021/12/13 11:12:19;;;;;;;;;2.50;2.50;;;;;;;;5051151;27;8897;-78
2021/12/13 11:14:46;;;;;;;;;33.00;31.50;;;;;;;;5048107;28;8859;-80
2021/12/13 11:17:14;;;;;;;;;27.80;25.20;;;;;;;;5050956;27;8827;-78
2021/12/13 11:19:41;;;;;;;;;0.00;0.00;;;;;;;;5053106;28;9504;-80
2021/12/13 11:22:11;;;;;;;;;0.00;0.00;;;;;;;;5062280;27;8754;-79
2021/12/13 11:24:38;;;;;;;;;0.00;0.00;;;;;;;;5053592;28;8902;-79
2021/12/13 11:27:06;;;;;;;;;22.40;21.20;;;;;;;;5053002;27;8934;-80
2021/12/13 11:29:32;;;;;;;;;93.33;88.33;;;;;;;;5052725;28;8918;-81
2021/12/13 11:32:13;;;;;;;;;52.25;45.50;;;;;;;;5053080;27;8922;-81
2021/12/13 11:34:44;;;;;;;;;128.67;127.33;;;;;;;;5050998;27;8827;-79
2021/12/13 11:37:13;;;;;;;;;135.25;135.25;;;;;;;;5054788;28;8794;-80
2021/12/13 11:39:58;;;;;;;;;87.00;81.40;;;;;;;;5052206;27;8803;-78
2021/12/13 11:42:29;;;;;;;;;122.50;119.17;;;;;;;;5053536;28;8780;-78
2021/12/13 11:45:14;;;;;;;;;172.80;172.80;;;;;;;;5098844;27;8950;-78
2021/12/13 11:48:01;;;;;;;;;93.00;88.33;;;;;;;;5049520;27;8877;-78
2021/12/13 11:50:45;;;;;;;;;104.17;99.67;;;;;;;;5052880;28;8772;-77
2021/12/13 11:53:19;;;;;;;;;92.00;86.00;;;;;;;;5052987;27;8792;-78
2021/12/13 11:56:04;;;;;;;;;290.71;290.71;;;;;;;;5097585;27;11606;-77
2021/12/13 11:58:45;;;;;;;;;315.33;315.33;;;;;;;;5051981;27;9006;-77
2021/12/13 12:01:29;;;;;;;;;29.00;27.25;;;;;;;;5041891;27;8888;-76
2021/12/13 12:03:54;;;;;;;;;410.43;410.43;;;;;;;;5051970;27;8729;-77
2021/12/13 12:06:38;;;;;;;;;319.67;319.67;;;;;;;;5088175;27;8864;-77
2021/12/13 12:09:17;;;;;;;;;380.83;380.83;;;;;;;;5048922;28;8795;-76
2021/12/13 12:12:05;;;;;;;;;287.80;287.80;;;;;;;;5050332;28;8797;-78
2021/12/13 12:14:31;;;;;;;;;147.67;147.67;;;;;;;;5051257;28;8815;-78
2021/12/13 12:16:57;;;;;;;;;299.33;299.33;;;;;;;;5053004;27;8860;-79
2021/12/13 12:19:36;;;;;;;;;292.33;292.33;;;;;;;;5050961;28;8829;-78
2021/12/13 12:22:10;;;;;;;;;234.00;234.00;;;;;;;;5048852;28;11626;-78
2021/12/13 12:24:38;;;;;;;;;343.67;343.67;;;;;;;;5050772;28;8951;-77
2021/12/13 12:27:05;;;;;;;;;373.40;373.40;;;;;;;;5051794;27;8824;-77
2021/12/13 12:29:37;;;;;;;;;361.00;361.00;;;;;;;;5051940;27;8803;-78
2021/12/13 12:32:06;;;;;;;;;432.86;432.86;;;;;;;;5050036;27;8951;-80
2021/12/13 12:34:33;;;;;;;;;396.00;396.00;;;;;;;;5051567;27;8792;-77
2021/12/13 12:36:58;;;;;;;;;425.40;425.40;;;;;;;;5050788;27;8800;-79
2021/12/13 12:39:43;;;;;;;;;206.83;206.83;;;;;;;;5051173;28;9077;-78
2021/12/13 12:42:08;;;;;;;;;322.00;322.00;;;;;;;;5058380;28;8781;-78
2021/12/13 12:44:59;;;;;;;;;285.40;285.40;;;;;;;;5064147;27;8832;-79
2021/12/13 12:47:45;;;;;;;;;336.40;336.40;;;;;;;;5060990;27;8871;-80
2021/12/13 12:50:12;;;;;;;;;353.71;353.71;;;;;;;;5099167;27;8870;-78
2021/12/13 12:52:52;;;;;;;;;324.50;324.50;;;;;;;;5071563;27;8797;-78
2021/12/13 12:55:23;;;;;;;;;389.17;388.50;;;;;;;;5067535;27;8820;-78
2021/12/13 12:57:48;;;;;;;;;370.33;370.33;;;;;;;;5051000;27;9706;-78
2021/12/13 13:00:14;;;;;;;;;401.67;401.67;;;;;;;;5050450;27;8963;-77
2021/12/13 13:02:40;;;;;;;;;407.83;406.50;;;;;;;;5051257;28;10386;-77
2021/12/13 13:05:09;;;;;;;;;273.33;273.33;;;;;;;;5067801;27;12305;-77
2021/12/13 13:07:36;;;;;;;;;453.50;453.50;;;;;;;;5058569;27;9779;-78
2021/12/13 13:10:01;;;;;;;;;332.00;330.67;;;;;;;;5050871;28;8856;-78
2021/12/13 13:12:30;;;;;;;;;412.40;411.80;;;;;;;;5049659;27;8856;-78
2021/12/13 13:14:55;;;;;;;;;328.00;328.00;;;;;;;;5045960;27;8875;-78
2021/12/13 13:17:25;;;;;;;;;358.00;357.17;;;;;;;;5046416;28;8857;-77
2021/12/13 13:19:53;;;;;;;;;306.83;306.83;;;;;;;;5056958;27;8780;-77
2021/12/13 13:22:18;;;;;;;;;316.17;315.67;;;;;;;;5051356;27;8841;-78
2021/12/13 13:24:50;;;;;;;;;432.40;431.00;;;;;;;;5050265;28;9535;-78
2021/12/13 13:27:16;;;;;;;;;441.14;441.14;;;;;;;;5049618;27;8838;-78
2021/12/13 13:29:42;;;;;;;;;290.40;290.40;;;;;;;;5051292;28;9738;-78
2021/12/13 13:32:10;;;;;;;;;439.40;439.40;;;;;;;;5051146;27;8792;-77
2021/12/13 13:34:40;;;;;;;;;497.29;497.29;;;;;;;;5058888;28;8924;-78
2021/12/13 13:37:05;;;;;;;;;329.14;329.14;;;;;;;;5056941;28;8839;-77
2021/12/13 13:39:39;;;;;;;;;409.80;409.80;;;;;;;;5062069;28;8804;-78
2021/12/13 13:42:07;;;;;;;;;390.50;390.50;;;;;;;;5049856;28;8815;-78
2021/12/13 13:44:38;;;;;;;;;264.67;264.67;;;;;;;;5059336;27;8792;-78
2021/12/13 13:47:06;;;;;;;;;493.83;493.83;;;;;;;;5048410;28;8937;-78
2021/12/13 13:49:31;;;;;;;;;409.57;409.57;;;;;;;;5051099;28;8803;-78
2021/12/13 13:51:57;;;;;;;;;495.50;494.50;;;;;;;;5049843;27;8840;-78
2021/12/13 13:54:27;;;;;;;;;415.00;415.00;;;;;;;;5055358;27;9508;-77
2021/12/13 13:56:53;;;;;;;;;414.86;414.86;;;;;;;;5049869;28;8792;-78
2021/12/13 13:59:20;;;;;;;;;481.83;481.83;;;;;;;;5058102;28;8792;-77
2021/12/13 14:02:07;;;;;;;;;428.29;428.29;;;;;;;;5049379;27;12419;-76
2021/12/13 14:04:34;;;;;;;;;377.86;376.71;;;;;;;;5049666;27;9729;-76
2021/12/13 14:07:04;;;;;;;;;476.29;476.29;;;;;;;;5059195;27;9764;-76
2021/12/13 14:09:41;;;;;;;;;287.83;287.83;;;;;;;;5050606;28;8772;-75
2021/12/13 14:12:11;;;;;;;;;469.00;469.00;;;;;;;;5050004;27;8808;-76
2021/12/13 14:14:44;;;;;;;;;460.57;460.57;;;;;;;;5048517;28;8811;-76
2021/12/13 14:17:09;;;;;;;;;387.50;387.00;;;;;;;;5047574;28;8773;-75
2021/12/13 14:19:47;;;;;;;;;395.00;395.00;;;;;;;;5054303;28;9700;-76
2021/12/13 14:22:14;;;;;;;;;425.17;425.17;;;;;;;;5049762;27;8740;-76
2021/12/13 14:24:47;;;;;;;;;481.33;480.33;;;;;;;;5049529;27;8788;-76
2021/12/13 14:27:19;;;;;;;;;479.57;479.57;;;;;;;;5050307;27;8792;-76
2021/12/13 14:29:45;;;;;;;;;413.50;413.50;;;;;;;;5040107;28;8816;-76
2021/12/13 14:32:11;;;;;;;;;391.00;391.00;;;;;;;;5048213;27;11998;-77
2021/12/13 14:34:38;;;;;;;;;318.50;318.50;;;;;;;;5048892;28;8823;-77
2021/12/13 14:37:04;;;;;;;;;344.17;344.17;;;;;;;;5049540;27;8902;-79
2021/12/13 14:39:38;;;;;;;;;285.50;285.17;;;;;;;;5049457;28;8772;-73
2021/12/13 14:42:07;;;;;;;;;499.43;499.43;;;;;;;;5049664;28;8798;-75
2021/12/13 14:44:34;;;;;;;;;486.17;486.17;;;;;;;;5077187;27;8784;-75
2021/12/13 14:47:08;;;;;;;;;299.67;299.67;;;;;;;;5047641;28;8760;-75
2021/12/13 14:49:42;;;;;;;;;445.67;445.67;;;;;;;;5052581;28;8800;-75
2021/12/13 14:52:10;;;;;;;;;354.40;354.40;;;;;;;;5052230;28;8799;-75
2021/12/13 14:54:37;;;;;;;;;359.67;359.67;;;;;;;;5069155;27;10818;-74
2021/12/13 14:57:05;;;;;;;;;345.57;345.57;;;;;;;;5056530;27;11497;-74
2021/12/13 14:59:31;;;;;;;;;472.00;472.00;;;;;;;;5059497;28;8796;-75
2021/12/13 15:01:57;;;;;;;;;344.67;344.67;;;;;;;;5051687;28;8841;-74
2021/12/13 15:04:24;;;;;;;;;427.50;427.50;;;;;;;;5052497;27;8914;-74
2021/12/13 15:06:53;;;;;;;;;353.83;353.83;;;;;;;;5072721;27;8781;-74
2021/12/13 15:09:25;;;;;;;;;337.80;337.80;;;;;;;;5052177;28;8769;-73